createdAt,value
2017-02-23T00:00:07.623Z,46.25
2017-02-23T00:01:17.512Z,46.35
2017-02-23T00:02:27.798Z,46.45
2017-02-23T00:03:38.073Z,46.15
2017-02-23T00:04:48.343Z,46.06
2017-02-23T00:05:58.718Z,46.06
2017-02-23T00:07:08.993Z,46.45
2017-02-23T00:08:19.670Z,46.25
2017-02-23T00:09:29.968Z,46.15
2017-02-23T00:10:40.271Z,46.35
2017-02-23T00:11:51.030Z,46.35
2017-02-23T00:13:01.689Z,46.25
2017-02-23T00:14:12.362Z,46.15
2017-02-23T00:15:22.276Z,46.25
2017-02-23T00:16:32.171Z,46.06
2017-02-23T00:17:43.246Z,46.15
2017-02-23T00:18:53.128Z,46.15
2017-02-23T00:20:03.781Z,46.35
2017-02-23T00:21:13.664Z,46.15
2017-02-23T00:22:23.556Z,46.25
2017-02-23T00:23:33.937Z,46.15
2017-02-23T00:24:44.230Z,46.15
2017-02-23T00:25:54.896Z,46.35
2017-02-23T00:27:04.830Z,46.15
2017-02-23T00:28:14.353Z,46.15
2017-02-23T00:29:24.769Z,46.15
2017-02-23T00:30:35.431Z,46.15
2017-02-23T00:31:46.107Z,46.15
2017-02-23T00:32:56.766Z,46.06
2017-02-23T00:34:07.035Z,46.15
2017-02-23T00:35:16.442Z,46.06
2017-02-23T00:36:26.728Z,46.15
2017-02-23T00:37:37.394Z,46.15
2017-02-23T00:38:47.693Z,46.15
2017-02-23T00:39:58.377Z,46.25
2017-02-23T00:41:07.967Z,46.35
2017-02-23T00:42:18.236Z,46.15
2017-02-23T00:43:28.879Z,46.25
2017-02-23T00:44:39.536Z,46.15
2017-02-23T00:45:50.190Z,46.25
2017-02-23T00:47:00.194Z,46.06
2017-02-23T00:48:10.070Z,45.97
2017-02-23T00:49:19.931Z,46.15
2017-02-23T00:50:30.197Z,46.25
2017-02-23T00:51:40.863Z,46.25
2017-02-23T00:52:51.224Z,46.45
2017-02-23T00:54:01.546Z,46.35
2017-02-23T00:55:11.047Z,46.25
2017-02-23T00:56:21.325Z,46.06
2017-02-23T00:57:31.985Z,46.25
2017-02-23T00:58:42.791Z,46.35
2017-02-23T00:59:53.064Z,46.25
2017-02-23T01:01:03.744Z,46.25
2017-02-23T01:02:14.012Z,46.06
2017-02-23T01:03:23.880Z,46.06
2017-02-23T01:04:33.891Z,46.25
2017-02-23T01:05:44.161Z,46.15
2017-02-23T01:06:54.838Z,46.25
2017-02-23T01:08:05.119Z,46.25
2017-02-23T01:09:15.781Z,46.15
2017-02-23T01:10:26.423Z,46.35
2017-02-23T01:11:36.685Z,46.15
2017-02-23T01:12:46.579Z,46.45
2017-02-23T01:13:56.873Z,46.25
2017-02-23T01:15:06.760Z,46.25
2017-02-23T01:16:16.767Z,46.35
2017-02-23T01:17:27.446Z,46.35
2017-02-23T01:18:38.157Z,46.25
2017-02-23T01:19:48.027Z,46.25
2017-02-23T01:20:57.925Z,46.15
2017-02-23T01:22:08.299Z,46.15
2017-02-23T01:23:18.967Z,46.25
2017-02-23T01:24:29.640Z,46.25
2017-02-23T01:25:39.903Z,46.15
2017-02-23T01:26:50.602Z,46.25
2017-02-23T01:28:01.042Z,46.15
2017-02-23T01:29:11.706Z,46.25
2017-02-23T01:30:21.598Z,46.35
2017-02-23T01:31:32.268Z,46.15
2017-02-23T01:32:42.932Z,46.25
2017-02-23T01:33:52.963Z,46.15
2017-02-23T01:35:03.238Z,46.15
2017-02-23T01:36:13.527Z,46.15
2017-02-23T01:37:24.193Z,46.15
2017-02-23T01:38:34.866Z,46.25
2017-02-23T01:39:45.620Z,46.45
2017-02-23T01:40:55.496Z,46.45
2017-02-23T01:42:05.384Z,46.25
2017-02-23T01:43:15.671Z,46.35
2017-02-23T01:44:25.549Z,46.35
2017-02-23T01:45:36.319Z,46.25
2017-02-23T01:46:46.981Z,46.35
2017-02-23T01:47:57.638Z,46.25
2017-02-23T01:49:08.285Z,46.35
2017-02-23T01:50:18.539Z,45.97
2017-02-23T01:51:29.469Z,46.15
2017-02-23T01:52:40.133Z,46.35
2017-02-23T01:53:50.812Z,46.25
2017-02-23T01:55:01.085Z,45.97
2017-02-23T01:56:10.978Z,46.25
2017-02-23T01:57:21.758Z,46.25
2017-02-23T01:58:31.650Z,46.15
2017-02-23T01:59:42.333Z,46.15
2017-02-23T02:00:52.628Z,46.35
2017-02-23T02:02:02.140Z,46.15
2017-02-23T02:03:12.580Z,46.06
2017-02-23T02:04:23.240Z,46.35
2017-02-23T02:05:33.927Z,46.25
2017-02-23T02:06:44.602Z,46.35
2017-02-23T02:07:54.886Z,46.25
2017-02-23T02:09:05.985Z,46.06
2017-02-23T02:10:16.265Z,46.25
2017-02-23T02:11:26.537Z,46.25
2017-02-23T02:12:37.198Z,46.06
2017-02-23T02:13:47.137Z,46.06
2017-02-23T02:14:57.896Z,46.45
2017-02-23T02:16:08.164Z,46.06
2017-02-23T02:17:18.824Z,46.45
2017-02-23T02:18:29.493Z,46.35
2017-02-23T02:19:39.751Z,46.06
2017-02-23T02:20:50.525Z,46.25
2017-02-23T02:22:00.784Z,46.35
2017-02-23T02:23:10.672Z,46.25
2017-02-23T02:24:20.933Z,46.06
2017-02-23T02:25:31.225Z,46.06
2017-02-23T02:26:41.614Z,46.25
2017-02-23T02:27:51.505Z,46.35
2017-02-23T02:29:02.179Z,46.45
2017-02-23T02:30:12.445Z,46.45
2017-02-23T02:31:23.158Z,46.45
2017-02-23T02:32:33.608Z,46.35
2017-02-23T02:33:44.273Z,46.35
2017-02-23T02:34:54.551Z,46.35
2017-02-23T02:36:04.071Z,46.55
2017-02-23T02:37:13.944Z,46.55
2017-02-23T02:38:24.333Z,46.35
2017-02-23T02:39:34.214Z,46.35
2017-02-23T02:40:44.108Z,46.45
2017-02-23T02:41:54.780Z,46.35
2017-02-23T02:43:05.724Z,46.25
2017-02-23T02:44:16.149Z,46.35
2017-02-23T02:45:26.047Z,46.45
2017-02-23T02:46:36.411Z,46.45
2017-02-23T02:47:46.019Z,46.45
2017-02-23T02:48:56.284Z,46.35
2017-02-23T02:50:06.272Z,46.25
2017-02-23T02:51:16.550Z,46.25
2017-02-23T02:52:27.200Z,46.55
2017-02-23T02:53:37.468Z,46.35
2017-02-23T02:54:47.386Z,46.45
2017-02-23T02:55:57.747Z,46.25
2017-02-23T02:57:08.416Z,46.45
2017-02-23T02:58:19.097Z,46.35
2017-02-23T02:59:29.368Z,46.45
2017-02-23T03:00:39.271Z,46.25
2017-02-23T03:01:49.654Z,46.35
2017-02-23T03:03:00.322Z,46.35
2017-02-23T03:04:11.008Z,46.25
2017-02-23T03:05:21.682Z,46.25
2017-02-23T03:06:31.951Z,46.45
2017-02-23T03:07:42.913Z,46.45
2017-02-23T03:08:53.184Z,46.35
2017-02-23T03:10:03.512Z,46.45
2017-02-23T03:11:13.382Z,46.35
2017-02-23T03:12:24.058Z,46.45
2017-02-23T03:13:34.822Z,46.45
2017-02-23T03:14:45.499Z,46.35
2017-02-23T03:15:56.175Z,46.35
2017-02-23T03:17:06.886Z,46.45
2017-02-23T03:18:17.566Z,46.15
2017-02-23T03:19:28.354Z,46.45
2017-02-23T03:20:39.018Z,46.45
2017-02-23T03:21:48.895Z,46.55
2017-02-23T03:22:59.562Z,46.06
2017-02-23T03:24:10.234Z,46.06
2017-02-23T03:25:21.025Z,46.23
2017-02-23T03:26:31.293Z,46.15
2017-02-23T03:27:41.557Z,46.15
2017-02-23T03:28:51.850Z,46.15
2017-02-23T03:30:02.131Z,46.25
2017-02-23T03:31:12.125Z,46.15
2017-02-23T03:32:22.405Z,46.15
2017-02-23T03:33:32.310Z,46.25
2017-02-23T03:34:42.958Z,46.15
2017-02-23T03:35:53.634Z,46.15
2017-02-23T03:37:04.411Z,46.14
2017-02-23T03:38:14.695Z,46.25
2017-02-23T03:39:24.956Z,46.15
2017-02-23T03:40:35.240Z,46.15
2017-02-23T03:41:45.509Z,46.15
2017-02-23T03:42:55.541Z,45.97
2017-02-23T03:44:05.818Z,45.87
2017-02-23T03:45:16.493Z,46.15
2017-02-23T03:46:27.143Z,45.87
2017-02-23T03:47:37.409Z,45.87
2017-02-23T03:48:47.396Z,46.06
2017-02-23T03:49:58.056Z,45.87
2017-02-23T03:51:07.939Z,46.15
2017-02-23T03:52:17.835Z,46.15
2017-02-23T03:53:28.509Z,46.06
2017-02-23T03:54:39.292Z,46.15
2017-02-23T03:55:49.201Z,46.25
2017-02-23T03:56:59.870Z,46.15
2017-02-23T03:58:10.530Z,45.87
2017-02-23T03:59:20.431Z,45.87
2017-02-23T04:00:30.078Z,45.97
2017-02-23T04:01:40.785Z,46.15
2017-02-23T04:02:51.454Z,45.87
2017-02-23T04:04:02.028Z,45.87
2017-02-23T04:05:12.702Z,45.97
2017-02-23T04:06:23.468Z,45.87
2017-02-23T04:07:33.368Z,45.87
2017-02-23T04:08:43.644Z,45.87
2017-02-23T04:09:53.939Z,45.68
2017-02-23T04:11:04.613Z,46.25
2017-02-23T04:12:15.050Z,45.87
2017-02-23T04:13:25.329Z,45.87
2017-02-23T04:14:36.005Z,45.87
2017-02-23T04:15:46.661Z,45.87
2017-02-23T04:16:56.575Z,46.06
2017-02-23T04:18:06.980Z,45.87
2017-02-23T04:19:16.881Z,45.87
2017-02-23T04:20:27.547Z,46.15
2017-02-23T04:21:37.467Z,46.15
2017-02-23T04:22:48.143Z,45.87
2017-02-23T04:23:58.893Z,46.06
2017-02-23T04:25:09.591Z,46.06
2017-02-23T04:26:19.892Z,46.06
2017-02-23T04:27:30.161Z,45.84
2017-02-23T04:28:40.062Z,45.97
2017-02-23T04:29:51.033Z,45.77
2017-02-23T04:31:01.697Z,46.06
2017-02-23T04:32:12.363Z,46.15
2017-02-23T04:33:22.677Z,45.97
2017-02-23T04:34:32.965Z,45.97
2017-02-23T04:35:43.786Z,45.77
2017-02-23T04:36:53.682Z,45.94
2017-02-23T04:38:04.340Z,45.97
2017-02-23T04:39:13.850Z,45.97
2017-02-23T04:40:24.508Z,45.97
2017-02-23T04:41:34.912Z,46.06
2017-02-23T04:42:45.584Z,45.97
2017-02-23T04:43:56.260Z,45.97
2017-02-23T04:45:06.540Z,45.77
2017-02-23T04:46:16.805Z,45.94
2017-02-23T04:47:27.162Z,45.68
2017-02-23T04:48:37.047Z,45.68
2017-02-23T04:49:47.711Z,45.68
2017-02-23T04:50:57.984Z,45.58
2017-02-23T04:52:08.641Z,45.58
2017-02-23T04:53:18.625Z,45.58
2017-02-23T04:54:28.910Z,45.65
2017-02-23T04:55:39.599Z,45.75
2017-02-23T04:56:49.485Z,45.58
2017-02-23T04:57:59.757Z,45.56
2017-02-23T04:59:10.535Z,45.75
2017-02-23T05:00:21.202Z,45.75
2017-02-23T05:01:31.910Z,45.68
2017-02-23T05:02:42.586Z,46.04
2017-02-23T05:03:52.526Z,45.97
2017-02-23T05:05:03.328Z,45.94
2017-02-23T05:06:13.601Z,45.97
2017-02-23T05:07:24.257Z,45.97
2017-02-23T05:08:34.961Z,45.58
2017-02-23T05:09:44.461Z,45.77
2017-02-23T05:10:54.834Z,45.94
2017-02-23T05:12:05.491Z,45.94
2017-02-23T05:13:15.786Z,46.04
2017-02-23T05:14:26.455Z,45.94
2017-02-23T05:15:36.354Z,45.94
2017-02-23T05:16:47.108Z,45.84
2017-02-23T05:17:57.769Z,45.56
2017-02-23T05:19:08.427Z,45.94
2017-02-23T05:20:18.293Z,45.97
2017-02-23T05:21:28.576Z,45.84
2017-02-23T05:22:38.545Z,45.97
2017-02-23T05:23:48.438Z,45.84
2017-02-23T05:24:59.128Z,45.97
2017-02-23T05:26:09.780Z,45.97
2017-02-23T05:27:20.474Z,46.04
2017-02-23T05:28:31.251Z,46.04
2017-02-23T05:29:41.523Z,46.04
2017-02-23T05:30:51.783Z,45.97
2017-02-23T05:32:02.067Z,46.06
2017-02-23T05:33:12.335Z,46.06
2017-02-23T05:34:22.726Z,46.04
2017-02-23T05:35:33.406Z,45.97
2017-02-23T05:36:43.694Z,46.14
2017-02-23T05:37:53.959Z,45.94
2017-02-23T05:39:04.637Z,45.97
2017-02-23T05:40:15.410Z,46.04
2017-02-23T05:41:25.679Z,46.04
2017-02-23T05:42:35.949Z,45.97
2017-02-23T05:43:46.217Z,45.97
2017-02-23T05:44:56.113Z,45.94
2017-02-23T05:46:06.893Z,45.87
2017-02-23T05:47:16.777Z,45.84
2017-02-23T05:48:27.439Z,45.75
2017-02-23T05:49:38.127Z,45.75
2017-02-23T05:50:48.010Z,45.84
2017-02-23T05:51:58.763Z,45.77
2017-02-23T05:53:09.034Z,45.65
2017-02-23T05:54:19.675Z,45.68
2017-02-23T05:55:29.962Z,45.68
2017-02-23T05:56:40.645Z,45.68
2017-02-23T05:57:50.655Z,45.68
2017-02-23T05:59:00.519Z,45.48
2017-02-23T06:00:10.821Z,46.04
2017-02-23T06:01:21.110Z,45.77
2017-02-23T06:02:31.382Z,45.65
2017-02-23T06:03:42.188Z,45.87
2017-02-23T06:04:52.982Z,45.77
2017-02-23T06:06:03.316Z,45.46
2017-02-23T06:07:13.965Z,45.48
2017-02-23T06:08:24.238Z,45.75
2017-02-23T06:09:35.068Z,45.75
2017-02-23T06:10:44.945Z,45.84
2017-02-23T06:11:55.243Z,45.39
2017-02-23T06:13:05.550Z,45.48
2017-02-23T06:14:16.226Z,45.27
2017-02-23T06:15:26.650Z,45.27
2017-02-23T06:16:37.328Z,45.65
2017-02-23T06:17:47.988Z,45.56
2017-02-23T06:18:58.252Z,45.56
2017-02-23T06:20:08.916Z,45.58
2017-02-23T06:21:19.318Z,45.56
2017-02-23T06:22:29.616Z,45.39
2017-02-23T06:23:40.270Z,45.87
2017-02-23T06:24:50.573Z,45.87
2017-02-23T06:26:01.291Z,45.39
2017-02-23T06:27:12.049Z,45.2
2017-02-23T06:28:21.938Z,45.58
2017-02-23T06:29:32.211Z,45
2017-02-23T06:30:42.153Z,45.2
2017-02-23T06:31:52.828Z,44.81
2017-02-23T06:33:03.209Z,44.9
2017-02-23T06:34:13.874Z,44.71
2017-02-23T06:35:24.182Z,44.54
2017-02-23T06:36:34.469Z,44.73
2017-02-23T06:37:45.129Z,44.93
2017-02-23T06:38:54.734Z,44.06
2017-02-23T06:40:04.987Z,44.25
2017-02-23T06:41:15.291Z,43.96
2017-02-23T06:42:25.962Z,44.45
2017-02-23T06:43:35.848Z,44.06
2017-02-23T06:44:45.822Z,44.15
2017-02-23T06:45:55.739Z,43.79
2017-02-23T06:47:06.424Z,43.98
2017-02-23T06:48:16.778Z,43.98
2017-02-23T06:49:27.081Z,43.98
2017-02-23T06:50:37.847Z,43.5
2017-02-23T06:51:48.503Z,43.7
2017-02-23T06:52:58.385Z,43.5
2017-02-23T06:54:09.041Z,43.7
2017-02-23T06:55:19.325Z,43.7
2017-02-23T06:56:28.929Z,43.6
2017-02-23T06:57:38.829Z,43.6
2017-02-23T06:58:48.728Z,43.79
2017-02-23T06:59:58.982Z,43.52
2017-02-23T07:01:09.652Z,43.24
2017-02-23T07:02:20.414Z,43.33
2017-02-23T07:03:31.087Z,43.14
2017-02-23T07:04:41.381Z,43.14
2017-02-23T07:05:51.267Z,43.14
2017-02-23T07:07:00.766Z,42.85
2017-02-23T07:08:11.536Z,42.94
2017-02-23T07:09:21.825Z,43.04
2017-02-23T07:10:32.085Z,42.94
2017-02-23T07:11:41.979Z,42.75
2017-02-23T07:12:52.256Z,43.24
2017-02-23T07:14:02.623Z,43.14
2017-02-23T07:15:12.504Z,42.75
2017-02-23T07:16:22.808Z,42.85
2017-02-23T07:17:32.336Z,42.97
2017-02-23T07:18:42.622Z,42.87
2017-02-23T07:19:53.004Z,42.48
2017-02-23T07:21:03.666Z,42.19
2017-02-23T07:22:13.609Z,42.39
2017-02-23T07:23:23.905Z,42.39
2017-02-23T07:24:34.169Z,42.39
2017-02-23T07:25:44.589Z,42.39
2017-02-23T07:26:55.256Z,42.39
2017-02-23T07:28:04.366Z,42.39
2017-02-23T07:29:14.641Z,42.21
2017-02-23T07:30:24.920Z,41.93
2017-02-23T07:31:35.288Z,42
2017-02-23T07:32:46.024Z,42
2017-02-23T07:33:56.681Z,42.02
2017-02-23T07:35:07.340Z,42.02
2017-02-23T07:36:17.214Z,42.02
2017-02-23T07:37:27.190Z,42.21
2017-02-23T07:38:37.471Z,42.6
2017-02-23T07:39:47.367Z,42.41
2017-02-23T07:40:57.648Z,42.41
2017-02-23T07:42:08.328Z,42.31
2017-02-23T07:43:18.333Z,42.31
2017-02-23T07:44:29.033Z,42.41
2017-02-23T07:45:38.923Z,42.6
2017-02-23T07:46:48.810Z,42.5
2017-02-23T07:47:59.455Z,42.41
2017-02-23T07:49:10.229Z,42.41
2017-02-23T07:50:20.093Z,42.79
2017-02-23T07:51:30.370Z,42.7
2017-02-23T07:52:40.665Z,42.79
2017-02-23T07:53:50.937Z,42.99
2017-02-23T07:55:00.968Z,43.06
2017-02-23T07:56:11.632Z,42.97
2017-02-23T07:57:21.524Z,43.16
2017-02-23T07:58:32.196Z,42.97
2017-02-23T07:59:42.852Z,43.06
2017-02-23T08:00:52.890Z,43.84
2017-02-23T08:02:03.544Z,43.64
2017-02-23T08:03:13.426Z,43.64
2017-02-23T08:04:23.728Z,43.54
2017-02-23T08:05:33.608Z,43.74
2017-02-23T08:06:43.200Z,43.64
2017-02-23T08:07:53.857Z,43.62
2017-02-23T08:09:03.342Z,44.22
2017-02-23T08:10:14.431Z,44.22
2017-02-23T08:11:24.690Z,43.93
2017-02-23T08:12:35.477Z,43.91
2017-02-23T08:13:45.761Z,44.01
2017-02-23T08:14:56.425Z,43.81
2017-02-23T08:16:06.717Z,43.72
2017-02-23T08:17:16.620Z,44.29
2017-02-23T08:18:27.189Z,44.2
2017-02-23T08:19:37.088Z,44.2
2017-02-23T08:20:46.989Z,44.1
2017-02-23T08:21:57.660Z,44.01
2017-02-23T08:23:07.954Z,44.01
2017-02-23T08:24:18.748Z,44.1
2017-02-23T08:25:29.406Z,44.01
2017-02-23T08:26:40.128Z,44.2
2017-02-23T08:27:50.788Z,44.01
2017-02-23T08:29:01.094Z,44.2
2017-02-23T08:30:11.115Z,44.2
2017-02-23T08:31:20.981Z,44.29
2017-02-23T08:32:31.262Z,44.2
2017-02-23T08:33:41.550Z,44.2
2017-02-23T08:34:51.891Z,44.2
2017-02-23T08:36:01.483Z,44.2
2017-02-23T08:37:11.407Z,44.2
2017-02-23T08:38:21.319Z,44.49
2017-02-23T08:39:31.617Z,44.49
2017-02-23T08:40:41.543Z,44.68
2017-02-23T08:41:52.388Z,44.76
2017-02-23T08:43:02.280Z,44.76
2017-02-23T08:44:12.965Z,44.95
2017-02-23T08:45:23.260Z,44.85
2017-02-23T08:46:33.960Z,44.66
2017-02-23T08:47:43.628Z,44.66
2017-02-23T08:48:53.925Z,44.66
2017-02-23T08:50:04.593Z,44.66
2017-02-23T08:51:14.786Z,44.56
2017-02-23T08:52:25.096Z,44.76
2017-02-23T08:53:35.100Z,44.56
2017-02-23T08:54:44.590Z,44.56
2017-02-23T08:55:55.269Z,44.56
2017-02-23T08:57:05.931Z,44.66
2017-02-23T08:58:16.223Z,44.37
2017-02-23T08:59:27.137Z,44.56
2017-02-23T09:00:37.421Z,44.56
2017-02-23T09:01:47.701Z,44.37
2017-02-23T09:02:57.234Z,44.46
2017-02-23T09:04:07.490Z,44.46
2017-02-23T09:05:17.529Z,44.46
2017-02-23T09:06:27.920Z,45.04
2017-02-23T09:07:38.224Z,44.56
2017-02-23T09:08:48.517Z,44.56
2017-02-23T09:09:59.210Z,44.46
2017-02-23T09:11:10.037Z,44.46
2017-02-23T09:12:19.924Z,44.76
2017-02-23T09:13:29.864Z,44.76
2017-02-23T09:14:40.531Z,45.04
2017-02-23T09:15:50.838Z,44.85
2017-02-23T09:17:01.301Z,44.95
2017-02-23T09:18:12.268Z,44.95
2017-02-23T09:19:22.535Z,44.95
2017-02-23T09:20:32.835Z,45.04
2017-02-23T09:21:43.498Z,44.85
2017-02-23T09:22:53.168Z,44.85
2017-02-23T09:24:03.843Z,44.95
2017-02-23T09:25:14.125Z,44.85
2017-02-23T09:26:24.439Z,44.76
2017-02-23T09:27:34.719Z,44.76
2017-02-23T09:28:45.543Z,44.95
2017-02-23T09:29:55.822Z,44.85
2017-02-23T09:31:06.109Z,44.95
2017-02-23T09:32:16.001Z,45.04
2017-02-23T09:33:25.916Z,44.76
2017-02-23T09:34:36.360Z,44.95
2017-02-23T09:35:46.260Z,44.95
2017-02-23T09:36:56.179Z,45.04
2017-02-23T09:38:06.874Z,45.04
2017-02-23T09:39:17.574Z,44.85
2017-02-23T09:40:28.395Z,44.85
2017-02-23T09:41:39.560Z,45.04
2017-02-23T09:42:49.466Z,44.93
2017-02-23T09:44:00.219Z,44.83
2017-02-23T09:45:10.915Z,44.76
2017-02-23T09:46:21.347Z,45.04
2017-02-23T09:47:30.862Z,45.04
2017-02-23T09:48:41.523Z,44.73
2017-02-23T09:49:52.207Z,45.12
2017-02-23T09:51:02.496Z,44.73
2017-02-23T09:52:12.940Z,44.95
2017-02-23T09:53:23.613Z,44.93
2017-02-23T09:54:34.301Z,44.93
2017-02-23T09:55:44.983Z,44.93
2017-02-23T09:56:55.271Z,44.93
2017-02-23T09:58:05.711Z,44.95
2017-02-23T09:59:16.412Z,44.83
2017-02-23T10:00:26.686Z,44.93
2017-02-23T10:01:37.409Z,44.93
2017-02-23T10:02:47.309Z,45.03
2017-02-23T10:03:58.162Z,44.73
2017-02-23T10:05:08.075Z,44.93
2017-02-23T10:06:18.775Z,44.93
2017-02-23T10:07:29.078Z,44.83
2017-02-23T10:08:38.563Z,44.93
2017-02-23T10:09:49.394Z,44.93
2017-02-23T10:10:59.689Z,44.83
2017-02-23T10:12:09.192Z,44.73
2017-02-23T10:13:19.856Z,44.93
2017-02-23T10:14:30.153Z,44.93
2017-02-23T10:16:48.927Z,44.93
2017-02-23T10:17:58.841Z,44.93
2017-02-23T10:19:09.519Z,44.93
2017-02-23T10:20:20.193Z,44.93
2017-02-23T10:21:30.476Z,44.83
2017-02-23T10:22:40.483Z,44.93
2017-02-23T10:23:50.798Z,44.93
2017-02-23T10:25:01.101Z,44.93
2017-02-23T10:26:11.003Z,44.83
2017-02-23T10:27:21.686Z,45.03
2017-02-23T10:28:32.466Z,45.12
2017-02-23T10:29:43.592Z,44.93
2017-02-23T10:30:54.258Z,45.03
2017-02-23T10:32:04.963Z,44.93
2017-02-23T10:33:15.647Z,44.93
2017-02-23T10:34:26.433Z,44.83
2017-02-23T10:35:36.749Z,44.93
2017-02-23T10:36:47.049Z,44.83
2017-02-23T10:37:56.960Z,44.83
2017-02-23T10:39:07.296Z,44.83
2017-02-23T10:40:17.690Z,44.93
2017-02-23T10:41:27.960Z,44.93
2017-02-23T10:42:38.275Z,45.03
2017-02-23T10:43:48.982Z,44.93
2017-02-23T10:44:59.663Z,44.93
2017-02-23T10:46:10.092Z,44.83
2017-02-23T10:47:20.396Z,45.03
2017-02-23T10:48:30.685Z,44.93
2017-02-23T10:49:41.361Z,44.83
2017-02-23T10:50:52.038Z,44.93
2017-02-23T10:52:02.440Z,44.73
2017-02-23T10:53:12.326Z,44.73
2017-02-23T10:54:23.024Z,44.35
2017-02-23T10:55:33.333Z,44.54
2017-02-23T10:56:43.997Z,44.45
2017-02-23T10:57:54.380Z,44.45
2017-02-23T10:59:04.665Z,44.35
2017-02-23T11:00:14.558Z,44.54
2017-02-23T11:01:24.839Z,44.64
2017-02-23T11:02:35.142Z,44.54
2017-02-23T11:03:45.898Z,44.54
2017-02-23T11:04:55.410Z,44.64
2017-02-23T11:06:05.308Z,44.64
2017-02-23T11:07:15.201Z,44.64
2017-02-23T11:08:25.501Z,44.54
2017-02-23T11:09:36.295Z,44.54
2017-02-23T11:10:46.212Z,44.54
2017-02-23T11:11:55.720Z,44.54
2017-02-23T11:13:06.704Z,44.54
2017-02-23T11:14:17.024Z,44.54
2017-02-23T11:15:27.026Z,44.54
2017-02-23T11:16:37.701Z,44.54
2017-02-23T11:17:47.984Z,44.64
2017-02-23T11:18:57.917Z,44.54
2017-02-23T11:20:08.228Z,44.64
2017-02-23T11:21:18.250Z,44.64
2017-02-23T11:22:28.580Z,44.64
2017-02-23T11:23:39.262Z,44.73
2017-02-23T11:24:49.945Z,44.73
2017-02-23T11:26:00.237Z,44.85
2017-02-23T11:27:11.048Z,44.83
2017-02-23T11:28:21.358Z,44.56
2017-02-23T11:29:31.648Z,44.54
2017-02-23T11:30:42.352Z,44.76
2017-02-23T11:31:53.041Z,44.56
2017-02-23T11:33:02.690Z,44.56
2017-02-23T11:34:13.296Z,44.95
2017-02-23T11:35:23.199Z,44.56
2017-02-23T11:36:33.493Z,44.56
2017-02-23T11:37:43.386Z,44.85
2017-02-23T11:38:53.990Z,44.83
2017-02-23T11:40:04.662Z,44.93
2017-02-23T11:41:14.961Z,44.95
2017-02-23T11:42:24.460Z,44.93
2017-02-23T11:43:35.177Z,45.04
2017-02-23T11:44:45.647Z,44.83
2017-02-23T11:45:55.616Z,44.83
2017-02-23T11:47:05.958Z,44.85
2017-02-23T11:48:16.245Z,44.73
2017-02-23T11:49:26.946Z,44.76
2017-02-23T11:50:36.957Z,44.85
2017-02-23T11:51:47.243Z,44.73
2017-02-23T11:52:57.144Z,44.83
2017-02-23T11:54:07.025Z,44.73
2017-02-23T11:55:17.705Z,44.73
2017-02-23T11:56:28.517Z,44.83
2017-02-23T11:57:38.830Z,44.64
2017-02-23T11:58:49.539Z,44.64
2017-02-23T11:59:59.862Z,44.73
2017-02-23T12:01:10.136Z,44.83
2017-02-23T12:02:20.544Z,44.73
2017-02-23T12:03:31.225Z,44.73
2017-02-23T12:04:40.746Z,44.73
2017-02-23T12:05:51.447Z,44.64
2017-02-23T12:07:02.110Z,44.54
2017-02-23T12:08:12.948Z,44.54
2017-02-23T12:09:23.615Z,44.73
2017-02-23T12:10:33.915Z,44.64
2017-02-23T12:11:43.828Z,44.64
2017-02-23T12:12:54.109Z,44.64
2017-02-23T12:14:04.510Z,44.54
2017-02-23T12:15:15.180Z,44.64
2017-02-23T12:16:25.866Z,44.64
2017-02-23T12:17:35.371Z,44.54
2017-02-23T12:18:45.261Z,44.54
2017-02-23T12:19:55.272Z,44.64
2017-02-23T12:21:05.978Z,44.54
2017-02-23T12:22:16.272Z,44.64
2017-02-23T12:23:26.559Z,44.64
2017-02-23T12:24:36.887Z,44.54
2017-02-23T12:25:47.307Z,44.73
2017-02-23T12:26:57.584Z,44.64
2017-02-23T12:28:07.857Z,44.64
2017-02-23T12:29:17.765Z,44.64
2017-02-23T12:30:28.059Z,44.73
2017-02-23T12:31:38.845Z,44.64
2017-02-23T12:32:49.138Z,44.73
2017-02-23T12:33:59.448Z,44.83
2017-02-23T12:35:09.748Z,44.73
2017-02-23T12:36:20.062Z,44.83
2017-02-23T12:37:30.073Z,44.93
2017-02-23T12:38:40.740Z,44.83
2017-02-23T12:39:51.446Z,44.73
2017-02-23T12:41:01.728Z,44.83
2017-02-23T12:42:12.050Z,44.73
2017-02-23T12:43:22.466Z,44.73
2017-02-23T12:44:32.770Z,44.64
2017-02-23T12:45:43.057Z,44.64
2017-02-23T12:46:53.338Z,44.64
2017-02-23T12:48:03.240Z,44.64
2017-02-23T12:49:14.057Z,44.73
2017-02-23T12:50:24.362Z,44.83
2017-02-23T12:51:34.653Z,44.54
2017-02-23T12:52:44.594Z,44.73
2017-02-23T12:53:55.285Z,44.73
2017-02-23T12:55:05.683Z,44.64
2017-02-23T12:56:15.988Z,44.73
2017-02-23T12:57:26.660Z,44.73
2017-02-23T12:58:37.341Z,44.64
2017-02-23T12:59:46.843Z,44.64
2017-02-23T13:00:57.233Z,44.64
2017-02-23T13:02:07.913Z,44.54
2017-02-23T13:03:18.220Z,44.54
2017-02-23T13:04:28.890Z,44.64
2017-02-23T13:05:39.214Z,44.64
2017-02-23T13:06:49.609Z,44.64
2017-02-23T13:08:00.305Z,44.45
2017-02-23T13:09:09.821Z,44.54
2017-02-23T13:10:20.143Z,44.45
2017-02-23T13:11:30.097Z,44.54
2017-02-23T13:12:40.872Z,44.54
2017-02-23T13:13:51.180Z,44.64
2017-02-23T13:15:01.479Z,44.64
2017-02-23T13:16:12.164Z,44.45
2017-02-23T13:17:22.827Z,44.54
2017-02-23T13:18:33.758Z,44.45
2017-02-23T13:19:43.663Z,44.45
2017-02-23T13:20:53.546Z,44.64
2017-02-23T13:22:03.441Z,44.64
2017-02-23T13:23:14.006Z,44.64
2017-02-23T13:24:24.413Z,44.54
2017-02-23T13:25:34.719Z,44.54
2017-02-23T13:26:45.443Z,44.54
2017-02-23T13:27:55.383Z,44.45
2017-02-23T13:29:05.311Z,44.64
2017-02-23T13:30:16.080Z,44.54
2017-02-23T13:31:26.394Z,44.54
2017-02-23T13:32:36.719Z,44.54
2017-02-23T13:33:47.015Z,44.54
2017-02-23T13:34:57.300Z,44.54
2017-02-23T13:36:08.128Z,44.64
2017-02-23T13:37:18.039Z,44.54
2017-02-23T13:38:28.327Z,44.64
2017-02-23T13:39:38.219Z,44.54
2017-02-23T13:40:48.105Z,44.25
2017-02-23T13:41:58.109Z,44.35
2017-02-23T13:43:08.425Z,44.93
2017-02-23T13:44:19.109Z,44.54
2017-02-23T13:45:29.781Z,44.35
2017-02-23T13:46:39.998Z,44.54
2017-02-23T13:47:50.785Z,44.64
2017-02-23T13:49:01.461Z,44.45
2017-02-23T13:50:12.145Z,44.45
2017-02-23T13:51:22.435Z,44.64
2017-02-23T13:52:32.780Z,44.54
2017-02-23T13:53:43.712Z,44.64
2017-02-23T13:54:54.386Z,44.64
2017-02-23T13:56:04.906Z,44.45
2017-02-23T13:57:14.400Z,44.54
2017-02-23T13:58:24.711Z,44.54
2017-02-23T13:59:35.560Z,44.54
2017-02-23T14:00:46.217Z,44.64
2017-02-23T14:01:56.499Z,44.64
2017-02-23T14:03:07.312Z,44.54
2017-02-23T14:04:18.036Z,44.64
2017-02-23T14:05:28.427Z,44.73
2017-02-23T14:06:38.330Z,44.73
2017-02-23T14:07:48.635Z,44.73
2017-02-23T14:08:59.311Z,44.64
2017-02-23T14:10:09.978Z,44.64
2017-02-23T14:11:20.369Z,44.54
2017-02-23T14:12:30.657Z,44.64
2017-02-23T14:13:40.934Z,44.64
2017-02-23T14:14:51.237Z,44.54
2017-02-23T14:16:01.921Z,44.54
2017-02-23T14:17:11.912Z,44.54
2017-02-23T14:18:22.589Z,44.64
2017-02-23T14:19:32.477Z,44.54
2017-02-23T14:20:42.774Z,44.54
2017-02-23T14:21:52.283Z,44.54
2017-02-23T14:23:03.047Z,44.64
2017-02-23T14:24:12.969Z,44.64
2017-02-23T14:25:23.660Z,44.64
2017-02-23T14:26:33.935Z,44.64
2017-02-23T14:27:44.225Z,44.35
2017-02-23T14:28:53.841Z,44.35
2017-02-23T14:30:04.137Z,44.35
2017-02-23T14:31:14.036Z,44.45
2017-02-23T14:32:23.960Z,44.73
2017-02-23T14:33:34.646Z,44.64
2017-02-23T14:34:44.643Z,44.64
2017-02-23T14:35:54.932Z,44.93
2017-02-23T14:37:05.222Z,44.73
2017-02-23T14:38:15.122Z,45.03
2017-02-23T14:39:25.422Z,44.93
2017-02-23T14:40:35.831Z,44.73
2017-02-23T14:41:46.540Z,44.73
2017-02-23T14:42:56.119Z,44.93
2017-02-23T14:44:06.408Z,44.83
2017-02-23T14:45:17.087Z,44.93
2017-02-23T14:46:27.855Z,44.73
2017-02-23T14:47:38.149Z,44.93
2017-02-23T14:48:48.426Z,45.03
2017-02-23T14:49:59.118Z,44.54
2017-02-23T14:51:09.406Z,44.73
2017-02-23T14:52:19.418Z,44.73
2017-02-23T14:53:29.712Z,44.64
2017-02-23T14:54:40.053Z,44.54
2017-02-23T14:55:50.780Z,44.64
2017-02-23T14:57:00.684Z,44.73
2017-02-23T14:58:11.163Z,44.73
2017-02-23T14:59:21.072Z,44.54
2017-02-23T15:00:31.794Z,44.64
2017-02-23T15:01:42.492Z,44.54
2017-02-23T15:02:53.162Z,44.64
2017-02-23T15:04:03.597Z,44.73
2017-02-23T15:05:13.974Z,44.45
2017-02-23T15:06:24.264Z,44.73
2017-02-23T15:07:34.560Z,44.73